Time;durP1;ratioP1;P1;durP2;ratioP2;P2;SDS_P1;SDS_P2;PMS_P1;PMS_P2;Temp;Humidity;BMP_temperature;BMP_pressure;BME280_temperature;BME280_humidity;BME280_pressure;Samples;Min_cycle;Max_cycle;Signal;HPM_P1;HPM_P2
2021/06/21 00:02:08;;;;;;;23.23;16.15;;;19.50;80.50;;;;;;5199347;28;20049;-69
2021/06/21 00:04:40;;;;;;;20.48;15.77;;;19.50;79.60;;;;;;5201269;28;20046;-69
2021/06/21 00:07:12;;;;;;;23.02;15.65;;;19.50;79.60;;;;;;5199363;28;20099;-69
2021/06/21 00:09:45;;;;;;;19.02;15.43;;;19.50;78.40;;;;;;5182029;28;20081;-70
2021/06/21 00:12:18;;;;;;;19.83;15.05;;;19.50;78.20;;;;;;5200116;28;20058;-72
2021/06/21 00:14:50;;;;;;;17.85;15.45;;;19.60;78.00;;;;;;5201010;28;20624;-70
2021/06/21 00:17:22;;;;;;;24.02;15.48;;;19.60;77.70;;;;;;5198924;28;20045;-70
2021/06/21 00:19:54;;;;;;;20.23;15.70;;;19.60;78.00;;;;;;5190591;28;20696;-70
2021/06/21 00:22:26;;;;;;;21.30;15.00;;;19.60;77.60;;;;;;5200389;28;20073;-70
2021/06/21 00:24:58;;;;;;;18.33;14.95;;;19.60;77.40;;;;;;5201541;28;20045;-70
2021/06/21 00:27:30;;;;;;;16.85;15.02;;;19.60;77.00;;;;;;5199563;28;20037;-70
2021/06/21 00:30:04;;;;;;;19.08;15.30;;;19.70;77.80;;;;;;5200320;28;20030;-70
2021/06/21 00:32:37;;;;;;;18.42;14.65;;;19.70;76.70;;;;;;5181815;28;20037;-70
2021/06/21 00:35:09;;;;;;;21.58;14.80;;;19.60;77.00;;;;;;5200517;28;20045;-70
2021/06/21 00:37:42;;;;;;;16.38;14.63;;;19.70;76.90;;;;;;5182076;28;20057;-70
2021/06/21 00:40:15;;;;;;;16.05;14.45;;;19.70;77.80;;;;;;5182196;28;20455;-69
2021/06/21 00:42:48;;;;;;;19.10;14.68;;;19.70;76.50;;;;;;5174875;28;20049;-70
2021/06/21 00:45:21;;;;;;;17.30;14.45;;;19.60;75.10;;;;;;5182561;28;20410;-70
2021/06/21 00:47:55;;;;;;;16.30;14.55;;;19.60;74.80;;;;;;5199505;28;20073;-69
2021/06/21 00:50:29;;;;;;;17.83;14.00;;;19.60;75.40;;;;;;5199201;28;20042;-69
2021/06/21 00:53:02;;;;;;;15.48;13.57;;;19.60;75.60;;;;;;5181844;28;20578;-70
2021/06/21 00:55:34;;;;;;;17.42;13.50;;;19.60;74.70;;;;;;5198565;28;20061;-70
2021/06/21 00:58:05;;;;;;;18.45;14.35;;;19.60;75.10;;;;;;5159589;28;20037;-69
2021/06/21 01:00:37;;;;;;;20.63;14.75;;;19.60;75.00;;;;;;5198654;28;20069;-70
2021/06/21 01:03:09;;;;;;;15.18;13.70;;;19.40;74.40;;;;;;5199926;28;20056;-69
2021/06/21 01:05:41;;;;;;;16.23;14.10;;;19.40;73.70;;;;;;5162863;28;20049;-69
2021/06/21 01:08:13;;;;;;;17.80;14.13;;;19.40;74.20;;;;;;5197931;28;20462;-69
2021/06/21 01:10:49;;;;;;;16.02;14.30;;;19.40;74.00;;;;;;5199289;28;20073;-70
2021/06/21 01:13:47;;;;;;;17.92;14.27;;;19.40;74.20;;;;;;5201704;28;20095;-70
2021/06/21 01:16:26;;;;;;;16.65;14.45;;;19.40;73.70;;;;;;5174171;28;20073;-70
2021/06/21 01:19:09;;;;;;;16.23;14.10;;;19.40;74.00;;;;;;5199494;28;20319;-70
2021/06/21 01:22:15;;;;;;;17.70;14.10;;;19.40;73.90;;;;;;5198686;28;20049;-72
2021/06/21 01:25:02;;;;;;;17.25;14.55;;;19.30;74.20;;;;;;5175796;28;20045;-70
2021/06/21 01:27:48;;;;;;;15.98;14.25;;;19.40;74.40;;;;;;5198631;28;20133;-69
2021/06/21 01:30:52;;;;;;;15.93;14.15;;;19.40;74.30;;;;;;5199635;28;20041;-69
2021/06/21 01:33:25;;;;;;;15.65;13.88;;;19.40;74.40;;;;;;5198558;28;20720;-70
2021/06/21 01:36:00;;;;;;;21.13;14.43;;;19.40;74.80;;;;;;5197139;28;20041;-69
2021/06/21 01:38:40;;;;;;;22.75;14.35;;;19.40;75.00;;;;;;5198612;28;20048;-71
2021/06/21 01:41:35;;;;;;;17.33;14.10;;;19.30;74.10;;;;;;5177510;28;20782;-69
2021/06/21 01:44:08;;;;;;;16.90;14.32;;;19.30;74.50;;;;;;5198310;28;20956;-69
2021/06/21 01:46:41;;;;;;;17.13;14.48;;;19.20;75.30;;;;;;5196241;28;20049;-69
2021/06/21 01:49:34;;;;;;;18.73;14.00;;;19.10;75.50;;;;;;5198336;28;20044;-70
2021/06/21 01:52:10;;;;;;;17.65;14.30;;;19.10;75.30;;;;;;5163356;28;20045;-70
2021/06/21 01:54:53;;;;;;;15.60;14.02;;;19.10;75.10;;;;;;5164142;28;20049;-69
2021/06/21 01:57:31;;;;;;;16.48;14.50;;;19.00;74.50;;;;;;5197858;28;20045;-70
2021/06/21 02:00:08;;;;;;;19.13;14.52;;;19.00;74.60;;;;;;5197807;28;20076;-69
2021/06/21 02:02:41;;;;;;;17.50;14.27;;;19.10;74.10;;;;;;5198127;28;20128;-69
2021/06/21 02:05:15;;;;;;;19.02;13.98;;;19.00;74.20;;;;;;5198221;28;20587;-70
2021/06/21 02:07:50;;;;;;;16.00;14.25;;;19.00;73.90;;;;;;5163606;28;20049;-70
2021/06/21 02:10:22;;;;;;;19.88;14.90;;;19.00;74.30;;;;;;5198209;28;20124;-70
2021/06/21 02:12:55;;;;;;;18.15;14.60;;;19.00;74.00;;;;;;5180460;28;20070;-70
2021/06/21 02:15:28;;;;;;;23.48;15.18;;;19.00;74.50;;;;;;5196844;28;20041;-69
2021/06/21 02:18:01;;;;;;;17.85;14.40;;;18.90;74.10;;;;;;5179851;28;20037;-70
2021/06/21 02:20:33;;;;;;;19.98;14.00;;;18.90;74.30;;;;;;5178517;28;20095;-70
2021/06/21 02:23:06;;;;;;;16.10;14.45;;;18.90;74.60;;;;;;5197475;28;20033;-70
2021/06/21 02:25:39;;;;;;;16.77;14.55;;;18.80;75.50;;;;;;5178892;28;20164;-69
2021/06/21 02:28:13;;;;;;;16.45;14.38;;;18.70;76.10;;;;;;5178690;28;20045;-70
2021/06/21 02:30:47;;;;;;;17.05;14.25;;;18.60;76.20;;;;;;5197920;28;20148;-70
2021/06/21 02:33:19;;;;;;;17.23;14.75;;;18.60;76.40;;;;;;5197955;28;20546;-70
2021/06/21 02:35:52;;;;;;;15.90;14.30;;;18.50;76.70;;;;;;5197201;28;20037;-70
2021/06/21 02:38:25;;;;;;;19.10;14.77;;;18.40;77.10;;;;;;5198007;28;20526;-70
2021/06/21 02:40:57;;;;;;;19.55;14.40;;;18.50;77.00;;;;;;5177141;28;20095;-70
2021/06/21 02:43:29;;;;;;;16.05;14.40;;;18.50;77.00;;;;;;5198026;28;20095;-70
2021/06/21 02:46:00;;;;;;;16.65;14.50;;;18.50;77.90;;;;;;5195821;28;20065;-70
2021/06/21 02:48:33;;;;;;;20.45;14.90;;;18.50;77.40;;;;;;5197151;28;20442;-71
2021/06/21 02:51:06;;;;;;;17.77;14.65;;;18.50;77.20;;;;;;5196989;28;20076;-70
2021/06/21 02:53:45;;;;;;;18.02;14.70;;;18.50;78.20;;;;;;5176260;28;20045;-71
2021/06/21 02:56:40;;;;;;;15.82;14.23;;;18.50;78.80;;;;;;5196469;28;20077;-69
2021/06/21 02:59:19;;;;;;;15.95;14.05;;;18.50;78.90;;;;;;5197948;28;20041;-69
2021/06/21 03:01:53;;;;;;;16.23;14.23;;;18.40;79.20;;;;;;5196993;28;20443;-69
2021/06/21 03:04:27;;;;;;;15.90;14.27;;;18.50;78.20;;;;;;5198445;28;20065;-70
2021/06/21 03:07:02;;;;;;;16.00;14.57;;;18.50;78.10;;;;;;5195927;28;20049;-70
2021/06/21 03:09:36;;;;;;;20.25;15.40;;;18.50;78.40;;;;;;5198217;28;20037;-70
2021/06/21 03:12:09;;;;;;;23.95;15.38;;;18.50;78.20;;;;;;5179113;28;20069;-70
2021/06/21 03:14:46;;;;;;;19.08;14.90;;;18.50;79.40;;;;;;5183264;28;20084;-70
2021/06/21 03:17:20;;;;;;;16.33;14.40;;;18.40;79.10;;;;;;5200485;28;20037;-70
2021/06/21 03:19:52;;;;;;;18.52;15.07;;;18.30;79.20;;;;;;5200408;28;20076;-70
2021/06/21 03:22:26;;;;;;;17.55;14.25;;;18.30;79.20;;;;;;5200814;28;20085;-70
2021/06/21 03:24:58;;;;;;;16.63;14.95;;;18.40;79.30;;;;;;5201951;28;20048;-70
2021/06/21 03:27:32;;;;;;;18.10;14.48;;;18.40;78.70;;;;;;5166227;28;20124;-70
2021/06/21 03:30:10;;;;;;;21.23;14.70;;;18.30;79.10;;;;;;5202303;28;20065;-69
2021/06/21 03:32:43;;;;;;;20.33;14.75;;;18.30;79.10;;;;;;5202002;28;20056;-69
2021/06/21 03:35:15;;;;;;;16.17;14.50;;;18.40;80.30;;;;;;5200678;28;20041;-69
2021/06/21 03:37:48;;;;;;;19.42;15.00;;;18.30;80.30;;;;;;5202174;28;20033;-70
2021/06/21 03:40:21;;;;;;;19.45;14.32;;;18.30;79.60;;;;;;5179822;28;20388;-70
2021/06/21 03:42:53;;;;;;;16.85;14.32;;;18.40;79.50;;;;;;5200150;28;20657;-70
2021/06/21 03:45:25;;;;;;;17.38;14.43;;;18.50;79.50;;;;;;5200565;28;20041;-69
2021/06/21 03:47:57;;;;;;;17.38;14.52;;;18.40;79.50;;;;;;5151746;28;20041;-70
2021/06/21 03:50:29;;;;;;;16.38;14.75;;;18.30;81.00;;;;;;5174947;28;20065;-70
2021/06/21 03:53:02;;;;;;;15.77;14.07;;;18.30;79.90;;;;;;5200782;28;20041;-70
2021/06/21 03:55:34;;;;;;;18.92;14.48;;;18.40;80.10;;;;;;5201458;28;20064;-69
2021/06/21 03:58:07;;;;;;;16.00;14.50;;;18.50;79.90;;;;;;5200908;28;20068;-69
2021/06/21 04:00:39;;;;;;;18.30;14.90;;;18.50;80.30;;;;;;5200306;28;20052;-69
2021/06/21 04:03:14;;;;;;;16.67;14.30;;;18.50;79.90;;;;;;5200452;28;20091;-70
2021/06/21 04:05:46;;;;;;;16.02;13.25;;;18.40;79.70;;;;;;5201075;28;20041;-69
2021/06/21 04:08:18;;;;;;;16.58;13.82;;;18.40;79.60;;;;;;5200373;28;20148;-70
2021/06/21 04:10:50;;;;;;;15.10;13.52;;;18.50;79.10;;;;;;5168012;28;20045;-69
2021/06/21 04:13:22;;;;;;;16.00;14.07;;;18.40;79.10;;;;;;5201256;28;20099;-69
2021/06/21 04:15:54;;;;;;;16.13;13.68;;;18.30;78.60;;;;;;5200086;28;20044;-68
2021/06/21 04:18:26;;;;;;;15.77;14.07;;;18.30;79.10;;;;;;5168394;28;20760;-69
2021/06/21 04:20:58;;;;;;;18.77;14.75;;;18.20;79.20;;;;;;5198720;28;20183;-69
2021/06/21 04:23:30;;;;;;;18.45;14.20;;;18.20;79.50;;;;;;5201102;28;20073;-69
2021/06/21 04:26:02;;;;;;;15.00;13.57;;;18.10;79.40;;;;;;5198717;28;20901;-71
2021/06/21 04:28:34;;;;;;;17.48;14.50;;;18.10;79.90;;;;;;5200748;28;20037;-69
2021/06/21 04:31:06;;;;;;;14.52;13.25;;;18.20;79.80;;;;;;5199933;28;20049;-68
2021/06/21 04:33:38;;;;;;;15.70;14.20;;;18.20;80.00;;;;;;5201192;28;20092;-69
2021/06/21 04:36:10;;;;;;;20.85;14.45;;;18.30;80.00;;;;;;5198166;28;20053;-69
2021/06/21 04:38:42;;;;;;;15.98;14.30;;;18.30;80.50;;;;;;5200941;28;20077;-68
2021/06/21 04:41:14;;;;;;;15.80;14.15;;;18.30;80.70;;;;;;5178469;28;20344;-68
2021/06/21 04:43:46;;;;;;;15.52;14.07;;;18.20;80.70;;;;;;5166896;28;20056;-69
2021/06/21 04:46:18;;;;;;;15.63;14.00;;;18.10;80.40;;;;;;5199045;28;20038;-69
2021/06/21 04:48:51;;;;;;;21.45;18.52;;;18.10;80.30;;;;;;5198446;28;20436;-69
2021/06/21 04:51:23;;;;;;;15.32;13.82;;;18.20;80.60;;;;;;5199930;28;20619;-70
2021/06/21 04:53:55;;;;;;;15.32;13.73;;;18.20;79.80;;;;;;5199686;28;20049;-69
2021/06/21 04:56:27;;;;;;;17.15;14.30;;;18.10;80.90;;;;;;5180563;28;20119;-69
2021/06/21 04:58:58;;;;;;;14.82;13.40;;;18.00;80.90;;;;;;5198755;28;20045;-69
2021/06/21 05:01:31;;;;;;;16.50;14.70;;;18.00;80.30;;;;;;5200051;28;20582;-69
2021/06/21 05:04:05;;;;;;;20.38;14.77;;;18.00;80.00;;;;;;5198058;28;20038;-71
2021/06/21 05:06:38;;;;;;;15.60;13.80;;;18.10;80.80;;;;;;5180664;28;20034;-71
2021/06/21 05:09:11;;;;;;;15.90;14.05;;;18.20;79.60;;;;;;5199094;28;20041;-70
2021/06/21 05:11:45;;;;;;;18.65;13.80;;;18.30;79.90;;;;;;5194847;28;20095;-70
2021/06/21 05:14:17;;;;;;;17.77;14.20;;;18.50;79.70;;;;;;5198672;28;21194;-70
2021/06/21 05:16:49;;;;;;;16.20;14.23;;;18.60;78.90;;;;;;5197318;28;20033;-70
2021/06/21 05:19:21;;;;;;;16.73;13.93;;;18.80;78.40;;;;;;5181631;28;20073;-71
2021/06/21 05:21:53;;;;;;;16.45;14.73;;;18.90;78.50;;;;;;5197962;28;20041;-71
2021/06/21 05:24:25;;;;;;;16.13;13.88;;;19.10;78.20;;;;;;5198212;28;20044;-70
2021/06/21 05:26:57;;;;;;;18.35;13.52;;;19.30;77.90;;;;;;5196777;28;20073;-70
2021/06/21 05:29:29;;;;;;;16.25;13.70;;;19.40;77.60;;;;;;5179296;28;20065;-70
2021/06/21 05:32:02;;;;;;;18.23;14.18;;;19.60;76.90;;;;;;5198487;28;20041;-73
2021/06/21 05:34:35;;;;;;;19.70;14.02;;;19.70;77.50;;;;;;5179696;28;20726;-72
2021/06/21 05:37:07;;;;;;;16.90;13.95;;;19.80;74.70;;;;;;5198465;28;20128;-73
2021/06/21 05:39:39;;;;;;;18.77;13.88;;;19.90;75.80;;;;;;5199559;28;20057;-70
2021/06/21 05:42:11;;;;;;;15.68;13.93;;;20.00;74.20;;;;;;5178110;28;20060;-72
2021/06/21 05:44:42;;;;;;;17.98;14.23;;;20.00;74.40;;;;;;5163125;28;20045;-71
2021/06/21 05:47:14;;;;;;;18.08;13.80;;;20.20;75.80;;;;;;5178607;28;20049;-71
2021/06/21 05:49:46;;;;;;;22.48;14.82;;;20.20;74.70;;;;;;5164663;28;20048;-72
2021/06/21 05:52:18;;;;;;;19.48;14.85;;;20.40;75.30;;;;;;5181752;28;20729;-71
2021/06/21 05:54:50;;;;;;;16.90;14.13;;;20.60;74.80;;;;;;5199929;28;20045;-71
2021/06/21 05:57:22;;;;;;;16.52;14.65;;;20.70;75.30;;;;;;5162068;28;20191;-72
2021/06/21 05:59:54;;;;;;;20.67;14.55;;;20.80;74.80;;;;;;5198864;28;20056;-72
2021/06/21 06:02:26;;;;;;;16.63;14.68;;;20.90;73.90;;;;;;5197129;28;20049;-72
2021/06/21 06:04:58;;;;;;;19.45;15.70;;;20.90;74.00;;;;;;5199258;28;20049;-72
2021/06/21 06:07:32;;;;;;;18.95;15.30;;;21.10;73.20;;;;;;5194617;28;20045;-71
2021/06/21 06:10:08;;;;;;;20.05;15.35;;;21.20;72.60;;;;;;5196583;28;20072;-71
2021/06/21 06:12:41;;;;;;;19.85;15.23;;;21.20;70.90;;;;;;5196723;28;20041;-71
2021/06/21 06:15:14;;;;;;;19.05;15.90;;;21.30;72.70;;;;;;5180700;28;20037;-72
2021/06/21 06:17:46;;;;;;;20.95;15.40;;;21.30;71.20;;;;;;5197259;28;20041;-71
2021/06/21 06:20:18;;;;;;;21.55;16.20;;;21.40;71.10;;;;;;5179659;28;20060;-71
2021/06/21 06:22:50;;;;;;;20.95;16.38;;;21.50;70.40;;;;;;5197855;28;20049;-71
2021/06/21 06:25:25;;;;;;;18.67;16.70;;;21.60;70.40;;;;;;5198165;28;20045;-71
2021/06/21 06:27:58;;;;;;;18.83;15.75;;;21.70;70.30;;;;;;5180797;28;20083;-71
2021/06/21 06:30:30;;;;;;;19.10;16.10;;;21.80;69.60;;;;;;5197940;28;20064;-73
2021/06/21 06:33:03;;;;;;;18.65;16.00;;;21.80;68.90;;;;;;5147920;28;20577;-71
2021/06/21 06:35:35;;;;;;;19.02;15.30;;;21.90;69.40;;;;;;5198175;28;20566;-72
2021/06/21 06:38:07;;;;;;;19.58;15.60;;;22.00;69.40;;;;;;5197798;28;20120;-72
2021/06/21 06:40:39;;;;;;;19.00;14.65;;;22.10;65.10;;;;;;5198337;28;20561;-71
2021/06/21 06:43:10;;;;;;;16.00;14.50;;;22.20;66.60;;;;;;5198385;28;20099;-71
2021/06/21 06:45:42;;;;;;;18.75;14.57;;;22.20;66.30;;;;;;5198380;28;20053;-71
2021/06/21 06:48:14;;;;;;;23.27;14.82;;;22.30;67.50;;;;;;5198034;28;20083;-71
2021/06/21 06:50:46;;;;;;;21.02;15.55;;;22.40;66.50;;;;;;5197869;28;20128;-71
2021/06/21 06:53:26;;;;;;;19.42;14.77;;;22.50;64.80;;;;;;5197875;28;20135;-71
2021/06/21 06:58:49;;;;;;;19.95;15.25;;;22.70;64.30;;;;;;5198255;28;20465;-74
2021/06/21 07:01:21;;;;;;;17.95;15.40;;;22.80;64.70;;;;;;5185243;28;20527;-71
2021/06/21 07:03:52;;;;;;;16.20;14.73;;;22.90;62.60;;;;;;5198485;28;20049;-71
2021/06/21 07:06:24;;;;;;;18.08;14.90;;;22.90;64.50;;;;;;5197219;28;20539;-71
2021/06/21 07:08:56;;;;;;;16.58;14.98;;;23.10;63.20;;;;;;5180701;28;20889;-72
2021/06/21 07:11:29;;;;;;;20.08;14.88;;;23.00;60.10;;;;;;5198039;28;20148;-71
2021/06/21 07:14:01;;;;;;;16.60;15.00;;;23.10;59.40;;;;;;5176135;28;20041;-71
2021/06/21 07:16:35;;;;;;;16.98;15.25;;;23.20;60.10;;;;;;5179168;28;20037;-71
2021/06/21 07:19:07;;;;;;;16.55;14.93;;;23.30;59.00;;;;;;5198146;28;20073;-71
2021/06/21 07:21:39;;;;;;;18.73;15.23;;;23.40;60.20;;;;;;5179972;28;20104;-71
2021/06/21 07:24:11;;;;;;;16.77;14.48;;;23.40;57.80;;;;;;5173944;28;20099;-71
2021/06/21 07:26:44;;;;;;;16.75;14.95;;;23.50;59.40;;;;;;5161801;28;20111;-71
2021/06/21 07:29:16;;;;;;;16.40;14.80;;;23.60;58.30;;;;;;5198333;28;20095;-72
2021/06/21 07:31:49;;;;;;;17.00;15.00;;;23.70;59.60;;;;;;5197739;28;20139;-71
2021/06/21 07:34:21;;;;;;;17.15;14.93;;;23.80;62.40;;;;;;5197628;28;20117;-71
2021/06/21 07:36:53;;;;;;;16.70;15.07;;;23.90;62.10;;;;;;5179343;28;20053;-71
2021/06/21 07:39:25;;;;;;;16.98;15.25;;;24.00;60.90;;;;;;5196778;28;20099;-71
2021/06/21 07:41:57;;;;;;;18.35;15.75;;;24.00;61.20;;;;;;5179120;28;20104;-71
2021/06/21 07:44:29;;;;;;;17.52;15.02;;;24.10;60.20;;;;;;5178659;28;20041;-71
2021/06/21 07:47:02;;;;;;;16.10;14.60;;;24.20;59.70;;;;;;5196746;28;20845;-71
2021/06/21 07:49:34;;;;;;;16.92;15.18;;;24.30;58.20;;;;;;5197599;28;20104;-71
2021/06/21 07:52:07;;;;;;;16.55;14.95;;;24.20;53.80;;;;;;5196588;28;20121;-71
2021/06/21 07:54:39;;;;;;;16.67;15.07;;;24.20;56.80;;;;;;5198264;28;20128;-71
2021/06/21 07:57:14;;;;;;;19.73;15.60;;;24.30;55.80;;;;;;5173226;28;20087;-71
2021/06/21 07:59:46;;;;;;;16.08;14.65;;;24.40;56.20;;;;;;5201967;28;20581;-72
2021/06/21 08:02:18;;;;;;;17.08;14.75;;;24.40;55.30;;;;;;5200696;28;20120;-73
2021/06/21 08:04:50;;;;;;;17.10;15.45;;;24.40;55.20;;;;;;5201219;28;20105;-71
2021/06/21 08:07:22;;;;;;;16.92;15.23;;;24.50;56.40;;;;;;5200490;28;20041;-71
2021/06/21 08:09:54;;;;;;;16.67;15.07;;;24.50;56.70;;;;;;5201920;28;20142;-72
2021/06/21 08:12:26;;;;;;;17.15;15.43;;;24.60;54.70;;;;;;5200883;28;20589;-72
2021/06/21 08:14:58;;;;;;;16.73;15.25;;;24.60;56.00;;;;;;5201880;28;20041;-71
2021/06/21 08:17:30;;;;;;;17.52;14.98;;;24.70;55.60;;;;;;5199551;28;20072;-71
2021/06/21 08:20:05;;;;;;;17.33;15.40;;;24.80;53.90;;;;;;5200828;28;20049;-71
2021/06/21 08:22:37;;;;;;;16.60;15.02;;;24.70;54.00;;;;;;5160554;28;20211;-71
2021/06/21 08:25:10;;;;;;;16.42;14.93;;;24.70;51.90;;;;;;5183297;28;20053;-71
2021/06/21 08:27:42;;;;;;;16.25;14.75;;;24.80;51.30;;;;;;5182074;28;20502;-71
2021/06/21 08:30:15;;;;;;;17.02;15.23;;;24.80;55.30;;;;;;5183805;28;20522;-71
2021/06/21 08:32:47;;;;;;;16.02;14.45;;;24.90;55.20;;;;;;5201026;28;20038;-71
2021/06/21 08:35:19;;;;;;;16.42;14.75;;;25.00;52.30;;;;;;5183267;28;20042;-71
2021/06/21 08:37:52;;;;;;;16.25;14.75;;;24.90;52.50;;;;;;5200041;28;20046;-71
2021/06/21 08:40:27;;;;;;;16.35;14.77;;;25.00;54.00;;;;;;5176801;28;20076;-71
2021/06/21 08:42:58;;;;;;;15.70;14.35;;;25.10;54.10;;;;;;5200711;28;20053;-71
2021/06/21 08:45:33;;;;;;;16.02;14.23;;;25.10;53.40;;;;;;5200810;28;20048;-71
2021/06/21 08:48:09;;;;;;;16.02;14.45;;;25.10;52.20;;;;;;5182272;28;20034;-71
2021/06/21 08:50:43;;;;;;;15.75;14.27;;;25.10;52.50;;;;;;5199626;28;20040;-71
2021/06/21 08:53:15;;;;;;;15.65;14.27;;;25.20;52.10;;;;;;5201109;28;20552;-71
2021/06/21 08:55:50;;;;;;;15.50;14.18;;;25.20;51.30;;;;;;5182339;28;20125;-72
2021/06/21 08:58:22;;;;;;;16.08;14.43;;;25.30;51.80;;;;;;5200387;28;20049;-71
2021/06/21 09:00:54;;;;;;;16.20;14.77;;;25.30;48.60;;;;;;5181296;28;20391;-71
2021/06/21 09:03:26;;;;;;;16.13;14.60;;;25.30;48.60;;;;;;5172412;28;20103;-71
2021/06/21 09:05:58;;;;;;;15.55;14.32;;;25.30;48.30;;;;;;5161543;28;20060;-72
2021/06/21 09:08:54;;;;;;;15.60;14.15;;;25.30;48.80;;;;;;5181970;28;20065;-72
2021/06/21 09:11:54;;;;;;;15.63;14.23;;;25.40;49.10;;;;;;5199120;28;20473;-71
2021/06/21 09:14:26;;;;;;;15.25;13.95;;;25.50;50.40;;;;;;5179074;28;20054;-71
2021/06/21 09:17:00;;;;;;;15.75;14.32;;;25.60;50.70;;;;;;5180926;28;20068;-71
2021/06/21 09:19:45;;;;;;;15.88;14.25;;;25.60;51.90;;;;;;5200080;28;20124;-71
2021/06/21 09:22:34;;;;;;;15.63;14.23;;;25.70;49.30;;;;;;5198892;28;20053;-73
2021/06/21 09:25:15;;;;;;;15.48;14.15;;;25.80;50.20;;;;;;5199078;28;20053;-71
2021/06/21 09:28:02;;;;;;;15.98;14.60;;;25.70;49.60;;;;;;5197979;28;20036;-71
2021/06/21 09:30:50;;;;;;;15.63;14.40;;;25.80;49.40;;;;;;5181942;28;20076;-71
2021/06/21 09:33:29;;;;;;;15.48;14.18;;;25.80;51.30;;;;;;5200102;28;20092;-73
2021/06/21 09:36:01;;;;;;;16.25;14.68;;;25.90;50.10;;;;;;5181309;28;20095;-71
2021/06/21 09:38:33;;;;;;;16.52;15.02;;;25.90;49.50;;;;;;5200085;28;20107;-71
2021/06/21 09:41:06;;;;;;;16.33;14.82;;;26.00;51.80;;;;;;5199494;28;20049;-72
2021/06/21 09:43:38;;;;;;;16.67;14.95;;;26.00;50.70;;;;;;5199838;28;20058;-71
2021/06/21 09:46:15;;;;;;;16.27;14.77;;;26.10;49.60;;;;;;5197963;28;20049;-72
2021/06/21 09:48:50;;;;;;;15.30;14.10;;;26.10;49.60;;;;;;5181791;28;20048;-72
2021/06/21 09:51:24;;;;;;;16.33;14.93;;;26.10;50.80;;;;;;5180917;28;20519;-72
2021/06/21 09:54:11;;;;;;;16.40;14.90;;;26.10;49.50;;;;;;5181507;28;20107;-72
2021/06/21 09:56:47;;;;;;;16.45;14.82;;;26.10;49.60;;;;;;5195426;28;20530;-72
2021/06/21 09:59:48;;;;;;;16.75;15.05;;;26.10;49.20;;;;;;5198725;28;20052;-72
2021/06/21 10:02:22;;;;;;;16.27;14.88;;;26.20;49.90;;;;;;5197836;28;20550;-71
2021/06/21 10:04:54;;;;;;;16.80;15.23;;;26.20;49.10;;;;;;5199323;28;20041;-72
2021/06/21 10:07:37;;;;;;;16.63;15.23;;;26.30;49.00;;;;;;5176319;28;20038;-70
2021/06/21 10:10:15;;;;;;;16.73;15.10;;;26.30;48.60;;;;;;5199079;28;20042;-72
2021/06/21 10:12:48;;;;;;;17.10;15.35;;;26.30;48.60;;;;;;5199002;28;20140;-73
2021/06/21 10:15:20;;;;;;;17.00;15.40;;;26.30;49.50;;;;;;5199004;28;20048;-72
2021/06/21 10:17:52;;;;;;;16.25;14.73;;;26.40;50.20;;;;;;5197907;28;20072;-71
2021/06/21 10:20:24;;;;;;;16.08;14.68;;;26.50;49.70;;;;;;5197845;28;20053;-71
2021/06/21 10:22:57;;;;;;;16.70;15.20;;;26.60;49.50;;;;;;5181526;28;20045;-71
2021/06/21 10:25:29;;;;;;;16.92;15.18;;;26.60;48.50;;;;;;5180565;28;20136;-71
2021/06/21 10:28:02;;;;;;;16.73;15.25;;;26.50;47.80;;;;;;5178783;28;20145;-72
2021/06/21 10:30:34;;;;;;;16.60;15.18;;;26.40;47.10;;;;;;5198699;28;20072;-71
2021/06/21 10:33:07;;;;;;;16.23;14.80;;;26.50;47.50;;;;;;5177025;28;20091;-71
2021/06/21 10:35:39;;;;;;;16.33;14.55;;;26.60;48.00;;;;;;5198177;28;20392;-71
2021/06/21 10:38:16;;;;;;;15.95;14.55;;;26.60;46.60;;;;;;5197262;28;20041;-71
2021/06/21 10:41:09;;;;;;;16.15;14.65;;;26.60;46.40;;;;;;5197759;28;20111;-73
2021/06/21 10:43:45;;;;;;;18.30;15.50;;;26.60;45.00;;;;;;5195891;28;20156;-71
2021/06/21 10:46:22;;;;;;;16.90;15.23;;;26.70;44.10;;;;;;5196525;28;20069;-72
2021/06/21 10:48:57;;;;;;;17.00;15.40;;;26.70;46.30;;;;;;5196375;28;20069;-74
2021/06/21 10:51:39;;;;;;;16.55;15.15;;;26.70;46.40;;;;;;5196178;28;20061;-74
2021/06/21 10:54:25;;;;;;;16.85;15.23;;;26.70;48.10;;;;;;5179477;28;20107;-75
2021/06/21 10:56:59;;;;;;;16.55;15.05;;;26.80;45.70;;;;;;5196078;28;20576;-74
2021/06/21 10:59:31;;;;;;;17.02;15.52;;;26.80;45.80;;;;;;5171501;28;20184;-74
2021/06/21 11:02:04;;;;;;;17.13;15.52;;;26.80;46.60;;;;;;5178542;28;20041;-75
2021/06/21 11:04:36;;;;;;;17.27;15.43;;;26.90;47.00;;;;;;5195289;28;20117;-74
2021/06/21 11:07:20;;;;;;;17.08;15.38;;;27.00;46.50;;;;;;5173074;28;20042;-75
2021/06/21 11:09:55;;;;;;;17.10;15.43;;;26.90;45.10;;;;;;5178204;28;20071;-75
2021/06/21 11:12:37;;;;;;;17.05;15.57;;;26.90;46.60;;;;;;5178279;28;20647;-75
2021/06/21 11:15:12;;;;;;;17.50;15.90;;;26.80;45.80;;;;;;5197104;28;20116;-75
2021/06/21 11:17:51;;;;;;;17.63;15.80;;;27.00;47.10;;;;;;5194691;28;20395;-75
2021/06/21 11:23:58;;;;;;;17.38;15.52;;;27.10;47.00;;;;;;5158251;28;20132;-74
2021/06/21 11:26:59;;;;;;;17.02;15.40;;;27.30;46.00;;;;;;5147053;28;20136;-74
2021/06/21 11:29:36;;;;;;;17.67;15.85;;;27.30;46.10;;;;;;5159795;28;20042;-75
2021/06/21 11:32:10;;;;;;;17.17;15.55;;;27.30;46.00;;;;;;5161827;28;20050;-74
2021/06/21 11:34:54;;;;;;;18.13;15.70;;;27.30;46.80;;;;;;5163807;28;20042;-74
2021/06/21 11:37:35;;;;;;;17.95;16.02;;;27.50;46.50;;;;;;5161685;28;20055;-74
2021/06/21 11:40:21;;;;;;;17.73;16.02;;;27.50;46.70;;;;;;5163054;28;20038;-74
2021/06/21 11:42:56;;;;;;;18.33;15.90;;;27.50;45.00;;;;;;5162352;28;20035;-74
2021/06/21 11:45:53;;;;;;;18.52;16.50;;;27.50;47.30;;;;;;5161717;28;20101;-75
2021/06/21 11:48:32;;;;;;;17.83;15.98;;;27.50;45.90;;;;;;5158598;28;20570;-74
2021/06/21 11:51:12;;;;;;;18.35;16.63;;;27.70;46.70;;;;;;5157614;28;20108;-76
2021/06/21 11:53:47;;;;;;;18.75;16.95;;;27.80;46.40;;;;;;5167894;28;20051;-75
2021/06/21 11:56:23;;;;;;;19.15;17.25;;;27.80;45.60;;;;;;5162476;28;20045;-75
2021/06/21 11:58:58;;;;;;;18.48;16.80;;;27.80;46.90;;;;;;5161673;28;20050;-73
2021/06/21 12:01:30;;;;;;;19.48;17.42;;;27.80;45.40;;;;;;5163856;28;20116;-76
2021/06/21 12:04:06;;;;;;;18.55;16.83;;;27.80;45.60;;;;;;5137287;28;20043;-76
2021/06/21 12:06:38;;;;;;;18.58;16.77;;;27.80;44.50;;;;;;5160517;28;20057;-75
2021/06/21 12:09:10;;;;;;;18.67;16.75;;;27.90;46.20;;;;;;5160706;28;20811;-75
2021/06/21 12:11:46;;;;;;;18.40;16.75;;;28.00;46.60;;;;;;5165388;28;20578;-74
2021/06/21 12:14:24;;;;;;;17.95;16.17;;;28.10;45.50;;;;;;5162967;28;20053;-74
2021/06/21 12:17:06;;;;;;;18.98;16.70;;;28.10;46.40;;;;;;5153846;28;20105;-75
2021/06/21 12:19:39;;;;;;;19.27;16.77;;;28.20;45.60;;;;;;5163879;28;20416;-77
2021/06/21 12:22:11;;;;;;;18.75;16.75;;;28.20;44.20;;;;;;5165814;28;20054;-75
2021/06/21 12:24:43;;;;;;;19.25;17.02;;;28.10;45.60;;;;;;5162134;28;20170;-74
2021/06/21 12:27:15;;;;;;;18.80;16.90;;;28.20;46.20;;;;;;5160871;28;20097;-74
2021/06/21 12:29:47;;;;;;;19.05;17.02;;;28.30;45.00;;;;;;5144793;28;20437;-76
2021/06/21 12:32:19;;;;;;;20.50;17.52;;;28.20;46.20;;;;;;5162453;28;20088;-76
2021/06/21 12:34:59;;;;;;;18.08;16.27;;;28.20;45.40;;;;;;5149147;28;20712;-75
2021/06/21 12:37:34;;;;;;;18.27;16.67;;;28.20;46.70;;;;;;5160463;28;20038;-75
2021/06/21 12:40:18;;;;;;;18.13;16.30;;;28.40;46.40;;;;;;5163955;28;20061;-76
2021/06/21 12:42:51;;;;;;;18.95;17.02;;;28.30;45.90;;;;;;5162320;28;20042;-75
2021/06/21 12:45:25;;;;;;;19.55;17.35;;;28.30;46.50;;;;;;5160677;28;20121;-74
2021/06/21 12:47:57;;;;;;;19.38;17.38;;;28.30;46.60;;;;;;5163106;28;20119;-74
2021/06/21 12:50:33;;;;;;;20.52;17.48;;;28.40;46.60;;;;;;5162629;28;20141;-74
2021/06/21 12:53:07;;;;;;;18.90;17.10;;;28.40;46.90;;;;;;5162477;28;20045;-74
2021/06/21 12:55:39;;;;;;;19.65;17.67;;;28.40;45.90;;;;;;5146638;28;20134;-75
2021/06/21 12:58:11;;;;;;;19.33;17.42;;;28.40;45.80;;;;;;5160882;28;20057;-76
2021/06/21 13:00:44;;;;;;;19.90;17.98;;;28.50;46.00;;;;;;5160244;28;20046;-76
2021/06/21 13:03:22;;;;;;;19.27;17.40;;;28.40;44.80;;;;;;5163032;28;20042;-76
2021/06/21 13:05:57;;;;;;;18.75;17.17;;;28.40;46.90;;;;;;5137738;28;20116;-74
2021/06/21 13:08:32;;;;;;;18.70;17.10;;;28.60;46.80;;;;;;5160110;28;20097;-73
2021/06/21 13:11:09;;;;;;;19.98;17.98;;;28.60;46.30;;;;;;5158853;28;20053;-75
2021/06/21 13:13:47;;;;;;;19.65;17.73;;;28.60;45.40;;;;;;5158748;28;20079;-74